Time;durP1;ratioP1;P1;durP2;ratioP2;P2;SDS_P1;SDS_P2;PMS_P1;PMS_P2;Temp;Humidity;BMP_temperature;BMP_pressure;BME280_temperature;BME280_humidity;BME280_pressure;Samples;Min_cycle;Max_cycle;Signal;HPM_P1;HPM_P2
2024/04/01 00:02:07;;;;;;;9.00;3.70;;;;;;;10.84;100.00;100689.27;109479;1250;60369;-55
2024/04/01 00:04:35;;;;;;;7.40;4.10;;;;;;;10.74;100.00;100693.10;109459;1249;60553;-55
2024/04/01 00:07:02;;;;;;;10.60;4.90;;;;;;;10.69;100.00;100690.27;109434;1249;75508;-56
2024/04/01 00:09:30;;;;;;;9.70;4.70;;;;;;;10.66;100.00;100689.58;109484;1250;66064;-54
2024/04/01 00:11:57;;;;;;;7.60;4.90;;;;;;;10.63;100.00;100684.63;109454;1249;72630;-56
2024/04/01 00:14:25;;;;;;;9.70;4.90;;;;;;;10.63;100.00;100682.90;109402;1249;59703;-56
2024/04/01 00:16:52;;;;;;;7.10;4.20;;;;;;;10.66;100.00;100683.92;109436;1250;59783;-55
2024/04/01 00:19:20;;;;;;;7.10;4.30;;;;;;;10.71;100.00;100684.84;109511;1249;74242;-55
2024/04/01 00:21:47;;;;;;;6.10;3.90;;;;;;;10.78;100.00;100684.05;109475;1249;66832;-56
2024/04/01 00:24:15;;;;;;;11.30;4.80;;;;;;;10.83;100.00;100678.92;109480;1249;72629;-55
2024/04/01 00:26:43;;;;;;;10.40;4.40;;;;;;;10.84;100.00;100679.19;109361;1253;60155;-58
2024/04/01 00:29:10;;;;;;;9.60;4.70;;;;;;;10.86;100.00;100679.98;109518;1250;59727;-54
2024/04/01 00:31:38;;;;;;;7.10;3.80;;;;;;;10.90;100.00;100682.42;109532;1250;75444;-55
2024/04/01 00:34:05;;;;;;;8.20;4.80;;;;;;;10.92;100.00;100681.30;109495;1249;66955;-55
2024/04/01 00:36:33;;;;;;;6.50;3.80;;;;;;;10.91;100.00;100678.48;109459;1250;72801;-55
2024/04/01 00:39:00;;;;;;;7.50;4.40;;;;;;;10.93;100.00;100682.46;109450;1250;60215;-55
2024/04/01 00:41:28;;;;;;;9.40;4.80;;;;;;;10.89;100.00;100685.83;109443;1249;60211;-55
2024/04/01 00:43:56;;;;;;;7.00;4.30;;;;;;;10.84;100.00;100684.69;109472;1250;75561;-56
2024/04/01 00:46:23;;;;;;;9.20;4.20;;;;;;;10.79;100.00;100680.78;109490;1249;67153;-54
2024/04/01 00:48:51;;;;;;;9.80;4.20;;;;;;;10.70;100.00;100680.32;109468;1250;72754;-55
2024/04/01 00:51:18;;;;;;;10.10;3.70;;;;;;;10.61;100.00;100684.45;109443;1253;59654;-55
2024/04/01 00:53:46;;;;;;;7.80;3.50;;;;;;;10.53;100.00;100683.55;109507;1250;59935;-55
2024/04/01 00:56:14;;;;;;;9.30;4.10;;;;;;;10.47;100.00;100681.05;109467;1250;74643;-55
2024/04/01 00:58:41;;;;;;;9.00;3.50;;;;;;;10.43;100.00;100678.68;109408;1256;66817;-55
2024/04/01 01:01:08;;;;;;;5.80;3.60;;;;;;;10.39;100.00;100680.56;109453;1250;72747;-55
2024/04/01 01:03:36;;;;;;;7.50;4.00;;;;;;;10.36;100.00;100678.66;109448;1251;59804;-54
2024/04/01 01:06:04;;;;;;;6.70;3.60;;;;;;;10.32;100.00;100676.14;109479;1250;60116;-54
2024/04/01 01:08:31;;;;;;;6.90;4.30;;;;;;;10.27;100.00;100671.48;109457;1250;75513;-55
2024/04/01 01:10:59;;;;;;;8.80;4.20;;;;;;;10.24;100.00;100669.84;109535;1250;67019;-54
2024/04/01 01:13:26;;;;;;;9.70;4.60;;;;;;;10.26;100.00;100666.06;109446;1250;72661;-58
2024/04/01 01:15:53;;;;;;;9.60;4.40;;;;;;;10.32;100.00;100662.07;109420;1250;59785;-55
2024/04/01 01:18:21;;;;;;;8.40;4.40;;;;;;;10.33;100.00;100664.93;109472;1249;60308;-55
2024/04/01 01:20:48;;;;;;;8.00;4.20;;;;;;;10.30;100.00;100660.31;109483;1250;75735;-56
2024/04/01 01:23:16;;;;;;;8.70;4.30;;;;;;;10.27;100.00;100666.49;109478;1250;66291;-55
2024/04/01 01:25:43;;;;;;;7.30;3.80;;;;;;;10.22;100.00;100668.90;109360;1252;72688;-58
2024/04/01 01:28:10;;;;;;;9.70;4.10;;;;;;;10.12;100.00;100668.74;109456;1250;59798;-55
2024/04/01 01:30:38;;;;;;;8.20;4.00;;;;;;;10.03;100.00;100668.36;109579;1250;60283;-55
2024/04/01 01:33:06;;;;;;;7.80;4.60;;;;;;;9.93;100.00;100662.84;109487;1250;75568;-55
2024/04/01 01:35:37;;;;;;;7.70;4.40;;;;;;;9.83;100.00;100664.66;109493;1250;67211;-55
2024/04/01 01:38:04;;;;;;;8.60;4.80;;;;;;;9.73;100.00;100662.13;109347;1249;71431;-54
2024/04/01 01:40:32;;;;;;;7.80;4.60;;;;;;;9.65;100.00;100662.14;109413;1251;59826;-55
2024/04/01 01:42:59;;;;;;;9.80;4.50;;;;;;;9.58;100.00;100661.31;109511;1253;59686;-54
2024/04/01 01:45:27;;;;;;;8.80;5.20;;;;;;;9.49;100.00;100662.40;109442;1249;74334;-55
2024/04/01 01:47:55;;;;;;;7.00;4.30;;;;;;;9.43;100.00;100663.46;109408;1250;66121;-57
2024/04/01 01:50:22;;;;;;;10.30;4.80;;;;;;;9.35;100.00;100663.64;109447;1250;71394;-54
2024/04/01 01:52:50;;;;;;;8.10;4.50;;;;;;;9.28;100.00;100663.00;109469;1249;59781;-55
2024/04/01 01:55:17;;;;;;;8.60;5.10;;;;;;;9.22;100.00;100665.89;109498;1250;60060;-55
2024/04/01 01:57:44;;;;;;;7.50;4.50;;;;;;;9.14;100.00;100666.35;109481;1250;75579;-55
2024/04/01 02:00:15;;;;;;;9.10;4.90;;;;;;;9.08;100.00;100666.17;109510;1250;65458;-54
2024/04/01 02:02:43;;;;;;;6.80;5.00;;;;;;;9.03;100.00;100665.64;109486;1250;72710;-54
2024/04/01 02:05:10;;;;;;;10.00;4.80;;;;;;;8.97;100.00;100666.06;109379;1252;60070;-55
2024/04/01 02:07:38;;;;;;;10.00;5.00;;;;;;;8.91;100.00;100667.75;109414;1251;59859;-56
2024/04/01 02:10:05;;;;;;;8.80;5.20;;;;;;;8.86;100.00;100669.36;109441;1251;74261;-55
2024/04/01 02:12:34;;;;;;;9.70;5.10;;;;;;;8.85;100.00;100673.59;109462;1252;67067;-55
2024/04/01 02:15:02;;;;;;;11.00;5.20;;;;;;;8.87;100.00;100674.98;109426;1252;72737;-55
2024/04/01 02:17:29;;;;;;;11.90;5.20;;;;;;;8.90;100.00;100678.64;109396;1252;60750;-55
2024/04/01 02:19:57;;;;;;;9.70;5.80;;;;;;;8.94;100.00;100683.19;109450;1251;59799;-59
2024/04/01 02:22:24;;;;;;;8.10;4.90;;;;;;;9.03;100.00;100682.96;109420;1252;75546;-55
2024/04/01 02:24:52;;;;;;;9.20;5.20;;;;;;;9.15;100.00;100689.05;109427;1252;65622;-55
2024/04/01 02:27:19;;;;;;;9.50;5.50;;;;;;;9.28;100.00;100687.60;109365;1252;72739;-54
2024/04/01 02:29:47;;;;;;;8.90;5.10;;;;;;;9.37;100.00;100685.98;109406;1252;59742;-54
2024/04/01 02:32:14;;;;;;;11.70;6.00;;;;;;;9.42;100.00;100685.41;109405;1252;60413;-55
2024/04/01 02:34:41;;;;;;;11.30;5.60;;;;;;;9.53;100.00;100687.73;109443;1251;75513;-54
2024/04/01 02:37:09;;;;;;;9.40;5.00;;;;;;;9.62;100.00;100687.92;109412;1251;67092;-55
2024/04/01 02:39:36;;;;;;;11.80;5.30;;;;;;;9.68;100.00;100693.21;109434;1252;71847;-55
2024/04/01 02:42:04;;;;;;;10.40;5.70;;;;;;;9.71;100.00;100693.43;109405;1252;59771;-57
2024/04/01 02:44:31;;;;;;;11.50;6.40;;;;;;;9.75;100.00;100693.65;109411;1252;60089;-54
2024/04/01 02:46:59;;;;;;;8.80;5.10;;;;;;;9.80;100.00;100698.71;109420;1251;74580;-54
2024/04/01 02:49:27;;;;;;;8.70;5.40;;;;;;;9.83;100.00;100699.36;109443;1252;66274;-56
2024/04/01 02:51:55;;;;;;;10.40;5.40;;;;;;;9.82;100.00;100702.42;109378;1252;72754;-55
2024/04/01 02:54:23;;;;;;;8.90;5.50;;;;;;;9.82;100.00;100705.78;109314;1252;59757;-55
2024/04/01 02:56:50;;;;;;;12.80;6.00;;;;;;;9.83;100.00;100706.45;109344;1252;59792;-55
2024/04/01 02:59:18;;;;;;;11.20;5.30;;;;;;;9.87;100.00;100703.12;109429;1251;75663;-55
2024/04/01 03:01:45;;;;;;;10.40;5.70;;;;;;;9.93;100.00;100708.66;109435;1252;66801;-54
2024/04/01 03:04:12;;;;;;;9.60;6.10;;;;;;;10.01;100.00;100706.49;109396;1251;72747;-58
2024/04/01 03:06:40;;;;;;;12.10;6.30;;;;;;;10.06;100.00;100706.81;109372;1252;60148;-55
2024/04/01 03:09:07;;;;;;;9.90;5.40;;;;;;;10.15;100.00;100706.95;109455;1251;59944;-55
2024/04/01 03:11:35;;;;;;;12.90;5.50;;;;;;;10.20;100.00;100704.85;109504;1250;74489;-55
2024/04/01 03:14:02;;;;;;;9.50;5.90;;;;;;;10.24;100.00;100701.86;109464;1251;67116;-55
2024/04/01 03:16:29;;;;;;;11.20;6.10;;;;;;;10.28;100.00;100701.60;109395;1251;71875;-54
2024/04/01 03:18:57;;;;;;;9.50;5.10;;;;;;;10.30;100.00;100703.77;109386;1251;59753;-55
2024/04/01 03:21:24;;;;;;;10.00;5.60;;;;;;;10.33;100.00;100705.55;109412;1251;60329;-55
2024/04/01 03:23:52;;;;;;;12.30;6.50;;;;;;;10.37;100.00;100712.21;109495;1250;74341;-56
2024/04/01 03:26:20;;;;;;;11.10;6.30;;;;;;;10.44;100.00;100712.42;109491;1250;65739;-58
2024/04/01 03:28:47;;;;;;;13.00;5.50;;;;;;;10.57;100.00;100709.70;109437;1251;71587;-54
2024/04/01 03:31:14;;;;;;;11.40;5.80;;;;;;;10.78;100.00;100709.92;109470;1253;59718;-55
2024/04/01 03:33:44;;;;;;;11.80;6.30;;;;;;;11.13;100.00;100712.42;109447;1250;60208;-55
2024/04/01 03:36:12;;;;;;;11.90;6.60;;;;;;;11.66;100.00;100710.21;109475;1250;75879;-55
2024/04/01 03:38:39;;;;;;;13.90;6.70;;;;;;;12.33;100.00;100709.81;109420;1250;66068;-55
2024/04/01 03:41:06;;;;;;;11.20;6.00;;;;;;;13.05;100.00;100702.33;109496;1252;72901;-56
2024/04/01 03:43:34;;;;;;;11.10;6.40;;;;;;;13.84;100.00;100703.31;109438;1250;60231;-58
2024/04/01 03:46:03;;;;;;;15.60;5.80;;;;;;;14.70;100.00;100699.45;109446;1250;59670;-58
2024/04/01 03:48:34;;;;;;;10.90;6.70;;;;;;;15.51;100.00;100694.97;109446;1250;75512;-61
2024/04/01 03:51:02;;;;;;;9.40;5.60;;;;;;;16.22;100.00;100696.36;109487;1250;65367;-55
2024/04/01 03:53:29;;;;;;;8.80;5.70;;;;;;;16.83;100.00;100692.20;109414;1251;71489;-55
2024/04/01 03:55:57;;;;;;;12.80;6.30;;;;;;;17.49;98.84;100684.95;109472;1251;60206;-55
2024/04/01 03:58:24;;;;;;;9.20;5.10;;;;;;;18.11;90.43;100685.85;109445;1251;59807;-59
2024/04/01 04:00:51;;;;;;;9.80;5.90;;;;;;;18.67;79.70;100680.23;109387;1251;76028;-55
2024/04/01 04:03:19;;;;;;;10.50;5.60;;;;;;;19.17;69.21;100678.57;109467;1251;65440;-55
2024/04/01 04:05:46;;;;;;;10.30;5.90;;;;;;;19.53;62.35;100679.23;109445;1251;72729;-55
2024/04/01 04:08:14;;;;;;;11.60;6.00;;;;;;;19.75;57.72;100674.80;109441;1250;60326;-54
2024/04/01 04:10:42;;;;;;;8.20;5.50;;;;;;;19.93;56.35;100674.14;109417;1251;59801;-58
2024/04/01 04:13:09;;;;;;;13.50;6.80;;;;;;;20.27;54.42;100676.49;109429;1251;74138;-55
2024/04/01 04:15:37;;;;;;;11.20;6.00;;;;;;;20.60;51.96;100673.61;109447;1250;67186;-54
2024/04/01 04:18:04;;;;;;;11.10;6.10;;;;;;;20.93;50.21;100667.17;109478;1250;71454;-55
2024/04/01 04:20:32;;;;;;;11.60;6.50;;;;;;;21.40;48.68;100667.22;109463;1251;59799;-55
2024/04/01 04:22:59;;;;;;;11.40;6.20;;;;;;;21.98;46.62;100661.80;109313;1251;60144;-56
2024/04/01 04:25:26;;;;;;;9.70;5.70;;;;;;;22.67;44.95;100658.46;109445;1251;74028;-56
2024/04/01 04:27:54;;;;;;;11.30;7.10;;;;;;;23.33;41.82;100654.78;109468;1250;65795;-54
2024/04/01 04:30:21;;;;;;;11.80;6.70;;;;;;;23.66;40.01;100652.56;109467;1251;72707;-54
2024/04/01 04:32:49;;;;;;;10.40;7.30;;;;;;;23.78;38.84;100653.95;109472;1251;59780;-54
2024/04/01 04:35:16;;;;;;;15.50;6.50;;;;;;;23.78;38.34;100653.80;109443;1253;59859;-54
2024/04/01 04:37:44;;;;;;;11.20;6.60;;;;;;;23.75;38.23;100657.52;109463;1250;74405;-54
2024/04/01 04:40:14;;;;;;;10.50;6.90;;;;;;;23.55;37.97;100661.34;109471;1251;67463;-55
2024/04/01 04:42:41;;;;;;;12.40;6.70;;;;;;;23.27;38.20;100666.46;109421;1251;71300;-55
2024/04/01 04:45:09;;;;;;;10.70;7.00;;;;;;;22.97;38.33;100667.42;109420;1251;59789;-57
2024/04/01 04:47:36;;;;;;;12.30;6.80;;;;;;;22.64;39.15;100667.25;109468;1251;59791;-55
2024/04/01 04:50:04;;;;;;;10.60;6.60;;;;;;;22.61;39.34;100664.30;109474;1251;75583;-55
2024/04/01 04:52:32;;;;;;;10.30;6.80;;;;;;;22.61;39.47;100663.35;109522;1251;65805;-56
2024/04/01 04:54:59;;;;;;;9.70;6.50;;;;;;;22.68;39.54;100656.98;109464;1252;72961;-56
2024/04/01 04:57:27;;;;;;;12.30;6.90;;;;;;;22.95;39.79;100653.05;109446;1251;60100;-59
2024/04/01 04:59:54;;;;;;;10.80;7.30;;;;;;;23.47;39.11;100646.50;109440;1251;60000;-56
2024/04/01 05:02:21;;;;;;;13.30;7.40;;;;;;;23.95;37.95;100638.52;109430;1250;75749;-56
2024/04/01 05:04:49;;;;;;;10.50;6.70;;;;;;;24.32;37.66;100632.29;109516;1250;67461;-57
2024/04/01 05:07:17;;;;;;;11.90;7.10;;;;;;;24.46;36.59;100634.46;109463;1251;72775;-56
2024/04/01 05:09:44;;;;;;;9.20;6.40;;;;;;;24.17;36.38;100628.27;109414;1250;59783;-55
2024/04/01 05:12:12;;;;;;;9.40;6.80;;;;;;;23.57;36.98;100625.27;109469;1251;60255;-55
2024/04/01 05:14:40;;;;;;;11.40;7.20;;;;;;;22.83;38.19;100622.91;109436;1250;75456;-56
2024/04/01 05:17:07;;;;;;;12.20;7.70;;;;;;;22.09;39.46;100619.13;109489;1251;66308;-55
2024/04/01 05:19:35;;;;;;;10.00;6.80;;;;;;;21.30;41.51;100614.15;109413;1251;72748;-56
2024/04/01 05:22:02;;;;;;;10.40;6.70;;;;;;;20.84;43.58;100620.23;109433;1251;60221;-56
2024/04/01 05:24:30;;;;;;;11.40;8.10;;;;;;;20.60;45.50;100623.83;109483;1253;59659;-54
2024/04/01 05:26:57;;;;;;;11.80;7.30;;;;;;;20.44;47.02;100622.74;109445;1250;75463;-54
2024/04/01 05:29:24;;;;;;;11.40;6.70;;;;;;;20.30;48.18;100620.85;109452;1253;67019;-59
2024/04/01 05:31:52;;;;;;;12.30;7.50;;;;;;;20.15;49.22;100619.89;109446;1250;73382;-56
2024/04/01 05:34:21;;;;;;;11.60;7.80;;;;;;;19.97;50.19;100614.65;109410;1251;59768;-55
2024/04/01 05:36:49;;;;;;;13.10;8.10;;;;;;;19.84;51.35;100614.28;109445;1251;59812;-56
2024/04/01 05:39:16;;;;;;;11.30;6.80;;;;;;;19.78;52.56;100606.61;109449;1251;74139;-56
2024/04/01 05:41:43;;;;;;;9.10;6.90;;;;;;;19.86;53.28;100608.71;109443;1256;67521;-56
2024/04/01 05:44:11;;;;;;;12.10;6.90;;;;;;;20.00;53.54;100610.29;109469;1251;72718;-56
2024/04/01 05:46:38;;;;;;;14.10;7.00;;;;;;;20.23;52.28;100608.98;109456;1251;60242;-55
2024/04/01 05:49:06;;;;;;;11.50;7.50;;;;;;;20.40;50.74;100606.67;109481;1252;60301;-56
2024/04/01 05:51:33;;;;;;;18.10;7.40;;;;;;;20.51;50.44;100603.38;109438;1250;74146;-57
2024/04/01 05:54:01;;;;;;;12.80;6.80;;;;;;;20.61;49.39;100604.55;109452;1250;66521;-55
2024/04/01 05:56:29;;;;;;;11.40;6.20;;;;;;;20.67;48.79;100601.16;109451;1250;72787;-55
2024/04/01 05:58:56;;;;;;;11.10;6.50;;;;;;;20.78;48.48;100607.15;109414;1250;59760;-55
2024/04/01 06:01:24;;;;;;;12.30;7.90;;;;;;;20.93;47.44;100603.08;109463;1251;60080;-55
2024/04/01 06:03:51;;;;;;;12.10;6.70;;;;;;;21.00;46.83;100608.16;109467;1250;77854;-56
2024/04/01 06:06:19;;;;;;;12.00;7.60;;;;;;;20.99;46.23;100607.35;109448;1250;66588;-56
2024/04/01 06:08:46;;;;;;;9.10;6.10;;;;;;;20.96;46.65;100613.20;109463;1251;72827;-55
2024/04/01 06:11:14;;;;;;;12.50;6.90;;;;;;;20.97;45.96;100613.58;109451;1251;59751;-55
2024/04/01 06:13:44;;;;;;;10.70;7.00;;;;;;;20.93;45.94;100622.48;109480;1250;60100;-55
2024/04/01 06:16:13;;;;;;;11.60;8.20;;;;;;;20.84;46.43;100623.98;109437;1251;77060;-55
2024/04/01 06:18:40;;;;;;;10.20;6.90;;;;;;;20.86;46.43;100621.41;109462;1251;67396;-55
2024/04/01 06:21:08;;;;;;;10.30;7.00;;;;;;;20.87;46.13;100621.82;109394;1250;74844;-54
2024/04/01 06:23:36;;;;;;;13.50;6.90;;;;;;;20.92;46.07;100618.22;109490;1251;62633;-58
2024/04/01 06:26:03;;;;;;;10.30;7.00;;;;;;;21.02;45.58;100608.20;109412;1251;61317;-54
2024/04/01 06:28:31;;;;;;;12.10;7.20;;;;;;;21.15;46.01;100608.75;109428;1250;76796;-55
2024/04/01 06:30:58;;;;;;;10.20;6.30;;;;;;;21.40;45.27;100611.05;109490;1253;67523;-55
2024/04/01 06:33:26;;;;;;;8.70;6.00;;;;;;;21.71;44.03;100610.05;109444;1251;75241;-55
2024/04/01 06:36:00;;;;;;;9.20;5.90;;;;;;;22.21;42.77;100610.16;109438;1251;62648;-55
2024/04/01 06:38:29;;;;;;;10.30;6.30;;;;;;;23.00;41.36;100613.79;109500;1251;61454;-54
2024/04/01 06:40:57;;;;;;;9.60;6.00;;;;;;;23.83;39.07;100620.31;109494;1252;77977;-57
2024/04/01 06:43:24;;;;;;;9.10;6.10;;;;;;;24.49;37.16;100620.28;109483;1250;68414;-58
2024/04/01 06:45:55;;;;;;;12.60;6.40;;;;;;;24.89;35.76;100614.39;109385;1252;75084;-55
2024/04/01 06:48:23;;;;;;;8.40;6.10;;;;;;;24.94;34.51;100608.24;109434;1250;62935;-56
2024/04/01 06:50:50;;;;;;;9.90;5.80;;;;;;;24.88;34.42;100607.23;109465;1251;60123;-56
2024/04/01 06:53:18;;;;;;;10.00;6.20;;;;;;;24.86;34.54;100602.98;109458;1250;77540;-60
2024/04/01 06:55:46;;;;;;;10.50;5.90;;;;;;;24.71;34.22;100598.31;109469;1251;67624;-54
2024/04/01 06:58:14;;;;;;;9.40;6.20;;;;;;;24.56;34.54;100598.80;109453;1251;74461;-54
2024/04/01 07:00:42;;;;;;;8.70;6.10;;;;;;;24.67;33.95;100591.75;109417;1253;62582;-54
2024/04/01 07:03:09;;;;;;;8.80;5.40;;;;;;;24.80;33.77;100583.63;109494;1250;62581;-54
2024/04/01 07:05:38;;;;;;;8.90;5.30;;;;;;;24.95;33.27;100577.46;109420;1250;78041;-58
2024/04/01 07:08:05;;;;;;;6.90;5.00;;;;;;;25.12;33.21;100568.80;109410;1250;69353;-54
2024/04/01 07:10:33;;;;;;;8.10;5.80;;;;;;;25.27;32.37;100565.50;109461;1250;75213;-54
2024/04/01 07:13:01;;;;;;;10.00;5.50;;;;;;;25.31;32.06;100568.73;109439;1251;62578;-55
2024/04/01 07:15:28;;;;;;;12.20;6.80;;;;;;;25.31;31.78;100562.23;109482;1250;60600;-55
2024/04/01 07:17:56;;;;;;;9.20;5.90;;;;;;;25.23;31.74;100562.58;109451;1250;77930;-59
2024/04/01 07:20:24;;;;;;;7.30;5.50;;;;;;;25.30;31.81;100558.97;109439;1252;69794;-55
2024/04/01 07:22:52;;;;;;;9.00;5.20;;;;;;;25.48;31.17;100552.86;109464;1253;74724;-56
2024/04/01 07:25:19;;;;;;;7.40;4.60;;;;;;;25.54;30.14;100543.16;109435;1251;61975;-57
2024/04/01 07:27:47;;;;;;;7.30;4.20;;;;;;;25.45;30.01;100540.70;109437;1253;62569;-56
2024/04/01 07:30:15;;;;;;;6.70;4.20;;;;;;;25.43;29.87;100547.02;109480;1250;77590;-57
2024/04/01 07:32:42;;;;;;;9.00;4.20;;;;;;;25.45;29.34;100546.88;109432;1251;68802;-55
2024/04/01 07:35:11;;;;;;;7.70;4.20;;;;;;;25.39;28.66;100556.69;109472;1251;74574;-56
2024/04/01 07:37:41;;;;;;;7.70;3.90;;;;;;;25.25;28.86;100554.25;109446;1251;62625;-55
2024/04/01 07:40:09;;;;;;;6.00;3.90;;;;;;;25.27;29.18;100555.45;109539;1251;62161;-55
2024/04/01 07:42:36;;;;;;;7.20;3.90;;;;;;;25.46;28.84;100545.23;109403;1251;76317;-56
2024/04/01 07:45:05;;;;;;;7.80;3.40;;;;;;;25.74;28.57;100531.30;109500;1250;69511;-55
2024/04/01 07:47:32;;;;;;;7.40;4.10;;;;;;;26.02;28.11;100522.09;109479;1251;74708;-56
2024/04/01 07:50:00;;;;;;;5.50;2.90;;;;;;;26.31;27.55;100514.90;109398;1251;61692;-55
2024/04/01 07:52:28;;;;;;;7.90;3.60;;;;;;;26.60;27.16;100513.52;109469;1252;61497;-59
2024/04/01 07:54:55;;;;;;;7.60;2.70;;;;;;;26.79;26.46;100503.63;109485;1251;77573;-56
2024/04/01 07:57:30;;;;;;;5.40;2.70;;;;;;;26.90;25.83;100500.77;109500;1250;67874;-56
2024/04/01 07:59:58;;;;;;;6.40;2.70;;;;;;;26.88;25.94;100496.95;109480;1251;74112;-56
2024/04/01 08:02:27;;;;;;;16.20;3.80;;;;;;;26.79;26.08;100501.02;109388;1250;62586;-59
2024/04/01 08:04:54;;;;;;;6.10;3.10;;;;;;;26.76;26.15;100500.95;109228;1251;61501;-55
2024/04/01 08:07:26;;;;;;;7.30;2.80;;;;;;;26.91;26.04;100500.65;109422;1256;77990;-55
2024/04/01 08:09:53;;;;;;;9.40;2.60;;;;;;;27.01;25.83;100503.38;109530;1251;67766;-56
2024/04/01 08:12:21;;;;;;;6.40;3.00;;;;;;;26.97;25.44;100498.93;109445;1253;75301;-56
2024/04/01 08:14:48;;;;;;;8.50;2.80;;;;;;;26.81;25.51;100495.09;109457;1250;61519;-56
2024/04/01 08:17:16;;;;;;;5.50;2.40;;;;;;;26.64;25.90;100486.79;109450;1256;62642;-55
2024/04/01 08:19:47;;;;;;;4.80;2.40;;;;;;;26.61;26.05;100484.42;109421;1251;77652;-56
2024/04/01 08:22:15;;;;;;;6.20;2.50;;;;;;;26.70;26.01;100484.64;109464;1251;68077;-56
2024/04/01 08:24:43;;;;;;;5.80;2.00;;;;;;;26.85;25.66;100485.96;109429;1253;74893;-56
2024/04/01 08:27:11;;;;;;;5.70;2.20;;;;;;;27.03;25.36;100483.17;109466;1251;60903;-56
2024/04/01 08:29:38;;;;;;;5.20;2.30;;;;;;;27.31;25.10;100482.72;109450;1251;62752;-55
2024/04/01 08:32:06;;;;;;;5.20;2.30;;;;;;;27.56;24.72;100479.58;109445;1251;77914;-57
2024/04/01 08:34:34;;;;;;;6.40;2.70;;;;;;;27.70;24.51;100479.95;109442;1253;68949;-57
2024/04/01 08:37:01;;;;;;;7.30;2.30;;;;;;;27.82;24.14;100482.04;109466;1251;75224;-55
2024/04/01 08:39:29;;;;;;;5.30;1.70;;;;;;;27.93;23.93;100478.48;109468;1253;61599;-56
2024/04/01 08:42:06;;;;;;;8.20;2.50;;;;;;;28.01;24.00;100469.89;109485;1251;60886;-55
2024/04/01 08:44:34;;;;;;;4.70;2.00;;;;;;;28.16;23.96;100467.58;109414;1252;77048;-54
2024/04/01 08:47:02;;;;;;;4.50;1.70;;;;;;;28.31;23.75;100465.86;109483;1252;68999;-56
2024/04/01 08:50:08;;;;;;;5.70;2.20;;;;;;;28.35;23.49;100462.14;109466;1251;75251;-56
2024/04/01 08:52:42;;;;;;;11.20;2.70;;;;;;;28.29;23.51;100465.36;109340;1250;62053;-55
2024/04/01 08:55:10;;;;;;;4.10;1.70;;;;;;;28.22;23.46;100466.30;109353;1251;61945;-55
2024/04/01 08:57:37;;;;;;;6.60;2.40;;;;;;;28.14;23.82;100458.91;109438;1251;78110;-55
2024/04/01 09:00:06;;;;;;;5.80;2.00;;;;;;;28.17;23.70;100458.41;109436;1254;68391;-59
2024/04/01 09:02:34;;;;;;;5.30;2.20;;;;;;;28.15;23.85;100458.39;109365;1251;75279;-55
2024/04/01 09:05:02;;;;;;;5.40;1.80;;;;;;;28.13;23.57;100463.04;109415;1256;62508;-56
2024/04/01 09:07:45;;;;;;;4.60;1.90;;;;;;;28.13;24.00;100452.25;109429;1251;62563;-59
2024/04/01 09:10:13;;;;;;;6.30;2.50;;;;;;;28.27;23.66;100448.41;109445;1254;77340;-55
2024/04/01 09:12:43;;;;;;;5.80;2.40;;;;;;;28.17;23.49;100442.59;109467;1251;68540;-55
2024/04/01 09:15:18;;;;;;;11.90;3.00;;;;;;;27.99;23.94;100431.85;109453;1251;74150;-55
2024/04/01 09:17:45;;;;;;;20.30;3.80;;;;;;;28.02;24.22;100427.95;109438;1251;63093;-60
2024/04/01 09:20:13;;;;;;;5.90;2.60;;;;;;;28.04;23.88;100429.21;109453;1251;62411;-55
2024/04/01 09:22:41;;;;;;;8.30;2.00;;;;;;;27.95;23.87;100417.64;109502;1251;77985;-56
2024/04/01 09:25:08;;;;;;;6.10;2.30;;;;;;;27.81;24.20;100414.71;109472;1251;69680;-55
2024/04/01 09:27:36;;;;;;;6.30;2.00;;;;;;;27.90;24.57;100411.07;109423;1251;74776;-55
2024/04/01 09:30:04;;;;;;;5.60;2.10;;;;;;;28.24;24.43;100395.35;109422;1251;62118;-59
2024/04/01 09:32:32;;;;;;;5.10;2.30;;;;;;;28.52;24.28;100388.55;109467;1253;62522;-56
2024/04/01 09:35:00;;;;;;;5.00;1.80;;;;;;;28.73;23.70;100382.52;109492;1251;78007;-56
2024/04/01 09:37:27;;;;;;;4.00;2.10;;;;;;;28.82;24.03;100376.46;109486;1250;68507;-57
2024/04/01 09:39:55;;;;;;;7.20;2.40;;;;;;;28.88;23.92;100380.21;109370;1251;74162;-57
2024/04/01 09:42:23;;;;;;;6.20;2.70;;;;;;;28.73;23.91;100364.28;109358;1252;61535;-57
2024/04/01 09:44:51;;;;;;;7.20;2.60;;;;;;;28.65;24.54;100365.84;109473;1251;62903;-55
2024/04/01 09:47:19;;;;;;;5.10;2.50;;;;;;;28.78;24.62;100361.05;109485;1251;77841;-56
2024/04/01 09:49:46;;;;;;;4.00;2.50;;;;;;;29.04;24.48;100361.77;109491;1250;59999;-56
2024/04/01 09:52:14;;;;;;;5.90;2.20;;;;;;;29.32;23.98;100367.77;109415;1251;74737;-59
2024/04/01 09:54:41;;;;;;;6.80;1.80;;;;;;;29.44;23.91;100362.06;109479;1251;61528;-56
2024/04/01 09:57:19;;;;;;;6.80;2.50;;;;;;;29.46;23.72;100363.40;109480;1251;62735;-54
2024/04/01 10:00:14;;;;;;;7.20;3.00;;;;;;;29.25;23.64;100359.14;109419;1251;76430;-57
2024/04/01 10:03:14;;;;;;;4.40;2.00;;;;;;;29.06;23.80;100353.69;109483;1254;68828;-56
2024/04/01 10:05:52;;;;;;;6.50;2.00;;;;;;;28.91;24.07;100353.75;109444;1251;75383;-56
2024/04/01 10:08:59;;;;;;;5.40;2.60;;;;;;;28.89;23.71;100355.35;109446;1251;60223;-55
2024/04/01 10:11:26;;;;;;;8.40;3.20;;;;;;;28.70;24.02;100360.25;109489;1250;62616;-55
2024/04/01 10:14:03;;;;;;;5.70;2.70;;;;;;;28.43;24.26;100359.79;109423;1251;69067;-56
2024/04/01 10:17:03;;;;;;;5.40;2.40;;;;;;;28.14;24.79;100354.04;109463;1250;69408;-55
2024/04/01 10:19:52;;;;;;;5.60;3.00;;;;;;;28.14;24.96;100350.02;109408;1252;75276;-55
2024/04/01 10:22:26;;;;;;;9.10;3.30;;;;;;;28.23;24.71;100350.16;109466;1253;61153;-55
2024/04/01 10:25:18;;;;;;;4.90;2.50;;;;;;;28.24;25.02;100349.10;109419;1250;61908;-55
2024/04/01 10:28:13;;;;;;;6.20;3.50;;;;;;;28.50;25.04;100350.16;109430;1251;76789;-55
2024/04/01 10:30:48;;;;;;;6.50;3.20;;;;;;;28.74;24.80;100343.23;109490;1251;69484;-54
2024/04/01 10:33:24;;;;;;;6.10;3.20;;;;;;;28.89;24.35;100341.23;109430;1251;75304;-57
2024/04/01 10:36:01;;;;;;;5.30;2.80;;;;;;;28.75;24.16;100342.93;109418;1252;62634;-54
2024/04/01 10:39:11;;;;;;;6.10;3.00;;;;;;;28.50;24.62;100335.98;109476;1250;60976;-59
2024/04/01 10:42:03;;;;;;;6.50;3.10;;;;;;;28.51;24.93;100331.49;109493;1250;77897;-54
2024/04/01 10:44:41;;;;;;;7.30;3.60;;;;;;;28.86;24.82;100332.60;109386;1251;69406;-56
2024/04/01 10:47:43;;;;;;;9.20;3.90;;;;;;;29.12;24.68;100329.29;109464;1251;74723;-56
2024/04/01 10:50:16;;;;;;;6.60;3.70;;;;;;;29.26;24.29;100326.54;109459;1250;61150;-56
2024/04/01 10:53:12;;;;;;;8.80;4.40;;;;;;;29.24;24.26;100325.76;109426;1251;59862;-54
2024/04/01 10:56:12;;;;;;;6.40;3.40;;;;;;;29.23;24.14;100317.83;109379;1251;77592;-55
2024/04/01 10:59:04;;;;;;;7.80;4.50;;;;;;;29.19;24.01;100318.31;109386;1256;67834;-59
2024/04/01 11:01:43;;;;;;;6.50;4.60;;;;;;;28.95;24.18;100321.02;109429;1251;74981;-55
2024/04/01 11:04:43;;;;;;;7.10;5.30;;;;;;;28.70;24.36;100317.34;109364;1251;59672;-56
2024/04/01 11:07:11;;;;;;;8.60;5.40;;;;;;;28.44;24.70;100310.95;109056;1251;60274;-55
2024/04/01 11:09:58;;;;;;;7.80;5.50;;;;;;;28.22;25.10;100317.77;109432;1251;77866;-59
2024/04/01 11:12:38;;;;;;;12.20;6.50;;;;;;;28.05;25.46;100309.52;109445;1251;67108;-54
2024/04/01 11:15:09;;;;;;;11.70;6.70;;;;;;;28.02;25.89;100311.29;109220;1251;295366;-55
2024/04/01 11:17:37;;;;;;;8.60;4.70;;;;;;;28.12;25.50;100306.25;109207;1251;59971;-56
2024/04/01 11:20:59;;;;;;;7.10;4.20;;;;;;;28.26;25.16;100300.02;109247;1251;59785;-54
2024/04/01 11:23:45;;;;;;;7.70;3.60;;;;;;;28.43;24.72;100300.66;108999;1257;77489;-56
2024/04/01 11:26:35;;;;;;;7.00;4.80;;;;;;;28.56;24.41;100294.22;109412;1251;68438;-55